sensor_id;sensor_type;location;lat;lon;timestamp;P1;durP1;ratioP1;P2;durP2;ratioP2
8312;SDS011;4194;43.408;24.626;2023-10-09T00:01:02;5.90;;;1.17;;
8312;SDS011;4194;43.408;24.626;2023-10-09T00:03:35;4.40;;;1.13;;
8312;SDS011;4194;43.408;24.626;2023-10-09T00:06:02;3.47;;;1.00;;
8312;SDS011;4194;43.408;24.626;2023-10-09T00:08:29;7.53;;;1.37;;
8312;SDS011;4194;43.408;24.626;2023-10-09T00:10:58;3.13;;;1.00;;
8312;SDS011;4194;43.408;24.626;2023-10-09T00:13:45;5.27;;;1.20;;
8312;SDS011;4194;43.408;24.626;2023-10-09T00:16:16;1.27;;;0.90;;
8312;SDS011;4194;43.408;24.626;2023-10-09T00:19:04;6.93;;;1.37;;
8312;SDS011;4194;43.408;24.626;2023-10-09T00:21:51;4.77;;;1.00;;
8312;SDS011;4194;43.408;24.626;2023-10-09T00:24:20;2.77;;;0.90;;
8312;SDS011;4194;43.408;24.626;2023-10-09T00:26:51;10.67;;;1.10;;
8312;SDS011;4194;43.408;24.626;2023-10-09T00:29:26;7.10;;;1.17;;
8312;SDS011;4194;43.408;24.626;2023-10-09T00:31:59;1.80;;;1.00;;
8312;SDS011;4194;43.408;24.626;2023-10-09T00:34:38;8.17;;;1.03;;
8312;SDS011;4194;43.408;24.626;2023-10-09T00:37:08;2.80;;;1.00;;
8312;SDS011;4194;43.408;24.626;2023-10-09T00:40:03;5.10;;;1.00;;
8312;SDS011;4194;43.408;24.626;2023-10-09T00:42:45;2.33;;;1.00;;
8312;SDS011;4194;43.408;24.626;2023-10-09T00:45:11;3.33;;;1.10;;
8312;SDS011;4194;43.408;24.626;2023-10-09T00:47:41;2.50;;;0.97;;
8312;SDS011;4194;43.408;24.626;2023-10-09T00:50:09;5.37;;;1.23;;
8312;SDS011;4194;43.408;24.626;2023-10-09T00:52:41;5.20;;;1.07;;
8312;SDS011;4194;43.408;24.626;2023-10-09T00:55:20;3.13;;;0.90;;
8312;SDS011;4194;43.408;24.626;2023-10-09T00:57:52;10.10;;;1.27;;
8312;SDS011;4194;43.408;24.626;2023-10-09T01:00:25;2.83;;;0.97;;
8312;SDS011;4194;43.408;24.626;2023-10-09T01:03:06;4.63;;;0.87;;
8312;SDS011;4194;43.408;24.626;2023-10-09T01:05:38;1.73;;;1.10;;
8312;SDS011;4194;43.408;24.626;2023-10-09T01:08:22;4.77;;;1.43;;
8312;SDS011;4194;43.408;24.626;2023-10-09T01:11:15;3.20;;;0.80;;
8312;SDS011;4194;43.408;24.626;2023-10-09T01:13:48;2.47;;;0.80;;
8312;SDS011;4194;43.408;24.626;2023-10-09T01:16:18;4.43;;;1.10;;
8312;SDS011;4194;43.408;24.626;2023-10-09T01:18:48;4.30;;;0.90;;
8312;SDS011;4194;43.408;24.626;2023-10-09T01:21:17;1.77;;;1.00;;
8312;SDS011;4194;43.408;24.626;2023-10-09T01:23:47;3.10;;;0.87;;
8312;SDS011;4194;43.408;24.626;2023-10-09T01:26:33;3.73;;;1.03;;
8312;SDS011;4194;43.408;24.626;2023-10-09T01:29:20;2.73;;;0.83;;
8312;SDS011;4194;43.408;24.626;2023-10-09T01:31:48;2.77;;;1.00;;
8312;SDS011;4194;43.408;24.626;2023-10-09T01:34:18;4.63;;;0.93;;
8312;SDS011;4194;43.408;24.626;2023-10-09T01:36:49;2.83;;;1.13;;
8312;SDS011;4194;43.408;24.626;2023-10-09T01:39:21;1.50;;;1.00;;
8312;SDS011;4194;43.408;24.626;2023-10-09T01:42:04;6.20;;;1.20;;
8312;SDS011;4194;43.408;24.626;2023-10-09T01:44:31;2.70;;;1.17;;
8312;SDS011;4194;43.408;24.626;2023-10-09T01:47:01;2.03;;;1.20;;
8312;SDS011;4194;43.408;24.626;2023-10-09T01:49:33;2.73;;;1.10;;
8312;SDS011;4194;43.408;24.626;2023-10-09T01:52:03;1.87;;;0.93;;
8312;SDS011;4194;43.408;24.626;2023-10-09T01:54:38;2.53;;;1.30;;
8312;SDS011;4194;43.408;24.626;2023-10-09T01:57:13;2.60;;;1.23;;
8312;SDS011;4194;43.408;24.626;2023-10-09T01:59:41;4.37;;;1.07;;
8312;SDS011;4194;43.408;24.626;2023-10-09T02:02:14;1.30;;;1.00;;
8312;SDS011;4194;43.408;24.626;2023-10-09T02:05:00;2.87;;;1.20;;
8312;SDS011;4194;43.408;24.626;2023-10-09T02:07:39;2.60;;;1.20;;
8312;SDS011;4194;43.408;24.626;2023-10-09T02:10:10;3.33;;;1.20;;
8312;SDS011;4194;43.408;24.626;2023-10-09T02:12:50;5.53;;;1.30;;
8312;SDS011;4194;43.408;24.626;2023-10-09T02:15:27;2.47;;;1.03;;
8312;SDS011;4194;43.408;24.626;2023-10-09T02:18:15;1.80;;;1.00;;
8312;SDS011;4194;43.408;24.626;2023-10-09T02:20:50;5.80;;;1.57;;
8312;SDS011;4194;43.408;24.626;2023-10-09T02:23:37;3.20;;;1.23;;
8312;SDS011;4194;43.408;24.626;2023-10-09T02:26:09;2.80;;;1.20;;
8312;SDS011;4194;43.408;24.626;2023-10-09T02:28:42;1.63;;;1.00;;
8312;SDS011;4194;43.408;24.626;2023-10-09T02:31:12;2.27;;;1.20;;
8312;SDS011;4194;43.408;24.626;2023-10-09T02:33:38;2.77;;;1.00;;
8312;SDS011;4194;43.408;24.626;2023-10-09T02:36:07;1.63;;;1.30;;
8312;SDS011;4194;43.408;24.626;2023-10-09T02:38:33;1.80;;;1.23;;
8312;SDS011;4194;43.408;24.626;2023-10-09T02:41:02;1.40;;;0.97;;
8312;SDS011;4194;43.408;24.626;2023-10-09T02:43:28;3.63;;;1.47;;
8312;SDS011;4194;43.408;24.626;2023-10-09T02:46:14;3.43;;;1.20;;
8312;SDS011;4194;43.408;24.626;2023-10-09T02:48:46;1.77;;;1.20;;
8312;SDS011;4194;43.408;24.626;2023-10-09T02:51:22;1.30;;;1.00;;
8312;SDS011;4194;43.408;24.626;2023-10-09T02:53:59;4.80;;;1.20;;
8312;SDS011;4194;43.408;24.626;2023-10-09T02:56:33;1.67;;;1.10;;
8312;SDS011;4194;43.408;24.626;2023-10-09T02:59:08;3.57;;;1.20;;
8312;SDS011;4194;43.408;24.626;2023-10-09T03:01:36;3.77;;;1.30;;
8312;SDS011;4194;43.408;24.626;2023-10-09T03:04:07;5.33;;;1.20;;
8312;SDS011;4194;43.408;24.626;2023-10-09T03:06:36;3.67;;;1.40;;
8312;SDS011;4194;43.408;24.626;2023-10-09T03:09:08;4.40;;;1.50;;
8312;SDS011;4194;43.408;24.626;2023-10-09T03:11:48;1.40;;;1.10;;
8312;SDS011;4194;43.408;24.626;2023-10-09T03:14:18;3.87;;;1.30;;
8312;SDS011;4194;43.408;24.626;2023-10-09T03:16:45;2.43;;;1.30;;
8312;SDS011;4194;43.408;24.626;2023-10-09T03:19:13;3.93;;;1.23;;
8312;SDS011;4194;43.408;24.626;2023-10-09T03:21:39;1.20;;;1.10;;
8312;SDS011;4194;43.408;24.626;2023-10-09T03:24:06;2.20;;;1.57;;
8312;SDS011;4194;43.408;24.626;2023-10-09T03:26:32;2.57;;;1.07;;
8312;SDS011;4194;43.408;24.626;2023-10-09T03:28:59;1.30;;;1.20;;
8312;SDS011;4194;43.408;24.626;2023-10-09T03:31:35;2.53;;;1.40;;
8312;SDS011;4194;43.408;24.626;2023-10-09T03:34:04;2.80;;;1.13;;
8312;SDS011;4194;43.408;24.626;2023-10-09T03:36:30;3.33;;;1.17;;
8312;SDS011;4194;43.408;24.626;2023-10-09T03:39:02;1.47;;;1.00;;
8312;SDS011;4194;43.408;24.626;2023-10-09T03:41:33;1.60;;;0.90;;
8312;SDS011;4194;43.408;24.626;2023-10-09T03:44:05;2.87;;;1.00;;
8312;SDS011;4194;43.408;24.626;2023-10-09T03:46:31;2.07;;;1.20;;
8312;SDS011;4194;43.408;24.626;2023-10-09T03:48:58;2.97;;;1.60;;
8312;SDS011;4194;43.408;24.626;2023-10-09T03:51:28;4.13;;;1.40;;
8312;SDS011;4194;43.408;24.626;2023-10-09T03:53:54;2.53;;;1.13;;
8312;SDS011;4194;43.408;24.626;2023-10-09T03:56:20;1.93;;;1.30;;
8312;SDS011;4194;43.408;24.626;2023-10-09T03:58:49;1.37;;;1.10;;
8312;SDS011;4194;43.408;24.626;2023-10-09T04:01:20;2.50;;;1.20;;
8312;SDS011;4194;43.408;24.626;2023-10-09T04:03:54;4.57;;;1.20;;
8312;SDS011;4194;43.408;24.626;2023-10-09T04:06:27;2.37;;;1.20;;
8312;SDS011;4194;43.408;24.626;2023-10-09T04:11:38;4.83;;;1.50;;
8312;SDS011;4194;43.408;24.626;2023-10-09T04:14:08;3.90;;;1.03;;
8312;SDS011;4194;43.408;24.626;2023-10-09T04:16:38;2.23;;;1.30;;
8312;SDS011;4194;43.408;24.626;2023-10-09T04:19:16;4.00;;;1.30;;
8312;SDS011;4194;43.408;24.626;2023-10-09T04:21:47;2.00;;;1.20;;
8312;SDS011;4194;43.408;24.626;2023-10-09T04:24:13;6.93;;;1.50;;
8312;SDS011;4194;43.408;24.626;2023-10-09T04:26:39;2.10;;;1.23;;
8312;SDS011;4194;43.408;24.626;2023-10-09T04:29:12;7.67;;;1.40;;
8312;SDS011;4194;43.408;24.626;2023-10-09T04:31:57;3.87;;;1.30;;
8312;SDS011;4194;43.408;24.626;2023-10-09T04:34:25;4.70;;;1.30;;
8312;SDS011;4194;43.408;24.626;2023-10-09T04:37:00;3.53;;;1.97;;
8312;SDS011;4194;43.408;24.626;2023-10-09T04:39:29;2.93;;;1.47;;
8312;SDS011;4194;43.408;24.626;2023-10-09T04:41:55;6.73;;;1.63;;
8312;SDS011;4194;43.408;24.626;2023-10-09T04:44:43;3.40;;;1.23;;
8312;SDS011;4194;43.408;24.626;2023-10-09T04:47:34;5.17;;;1.23;;
8312;SDS011;4194;43.408;24.626;2023-10-09T04:50:07;2.63;;;1.20;;
8312;SDS011;4194;43.408;24.626;2023-10-09T04:52:54;3.07;;;1.17;;
8312;SDS011;4194;43.408;24.626;2023-10-09T04:55:20;2.00;;;1.33;;
8312;SDS011;4194;43.408;24.626;2023-10-09T04:57:50;2.80;;;1.50;;
8312;SDS011;4194;43.408;24.626;2023-10-09T05:00:38;4.80;;;1.50;;
8312;SDS011;4194;43.408;24.626;2023-10-09T05:03:07;5.10;;;1.60;;
8312;SDS011;4194;43.408;24.626;2023-10-09T05:05:37;3.70;;;1.57;;
8312;SDS011;4194;43.408;24.626;2023-10-09T05:10:57;4.43;;;1.47;;
8312;SDS011;4194;43.408;24.626;2023-10-09T05:13:36;2.27;;;1.30;;
8312;SDS011;4194;43.408;24.626;2023-10-09T05:18:52;3.10;;;1.40;;
8312;SDS011;4194;43.408;24.626;2023-10-09T05:23:58;2.57;;;1.53;;
8312;SDS011;4194;43.408;24.626;2023-10-09T05:26:40;4.53;;;1.53;;
8312;SDS011;4194;43.408;24.626;2023-10-09T05:29:13;2.10;;;1.33;;
8312;SDS011;4194;43.408;24.626;2023-10-09T05:31:58;5.43;;;1.50;;
8312;SDS011;4194;43.408;24.626;2023-10-09T05:34:33;1.53;;;1.20;;
8312;SDS011;4194;43.408;24.626;2023-10-09T05:37:22;3.97;;;1.27;;
8312;SDS011;4194;43.408;24.626;2023-10-09T05:39:55;3.40;;;1.30;;
8312;SDS011;4194;43.408;24.626;2023-10-09T05:42:24;5.13;;;1.60;;
8312;SDS011;4194;43.408;24.626;2023-10-09T05:44:54;2.20;;;1.40;;
8312;SDS011;4194;43.408;24.626;2023-10-09T05:47:39;8.63;;;1.33;;
8312;SDS011;4194;43.408;24.626;2023-10-09T05:50:18;3.17;;;1.20;;
8312;SDS011;4194;43.408;24.626;2023-10-09T05:52:47;1.83;;;1.20;;
8312;SDS011;4194;43.408;24.626;2023-10-09T05:55:22;2.30;;;1.30;;
8312;SDS011;4194;43.408;24.626;2023-10-09T05:57:49;1.97;;;1.13;;
8312;SDS011;4194;43.408;24.626;2023-10-09T06:00:21;2.33;;;1.43;;
8312;SDS011;4194;43.408;24.626;2023-10-09T06:03:06;2.40;;;1.10;;
8312;SDS011;4194;43.408;24.626;2023-10-09T06:05:44;1.80;;;1.30;;
8312;SDS011;4194;43.408;24.626;2023-10-09T06:08:28;4.07;;;1.20;;
8312;SDS011;4194;43.408;24.626;2023-10-09T06:11:07;2.57;;;1.60;;
8312;SDS011;4194;43.408;24.626;2023-10-09T06:13:55;2.17;;;1.40;;
8312;SDS011;4194;43.408;24.626;2023-10-09T06:16:28;7.97;;;1.10;;
8312;SDS011;4194;43.408;24.626;2023-10-09T06:19:07;2.23;;;1.20;;
8312;SDS011;4194;43.408;24.626;2023-10-09T06:21:36;1.70;;;1.20;;
8312;SDS011;4194;43.408;24.626;2023-10-09T06:24:21;1.90;;;1.10;;
8312;SDS011;4194;43.408;24.626;2023-10-09T06:27:06;4.57;;;1.20;;
8312;SDS011;4194;43.408;24.626;2023-10-09T06:29:32;2.60;;;1.07;;
8312;SDS011;4194;43.408;24.626;2023-10-09T06:32:04;2.60;;;1.30;;
8312;SDS011;4194;43.408;24.626;2023-10-09T06:34:52;2.10;;;1.90;;
8312;SDS011;4194;43.408;24.626;2023-10-09T06:37:40;5.00;;;2.13;;
8312;SDS011;4194;43.408;24.626;2023-10-09T06:40:26;9.47;;;1.43;;
8312;SDS011;4194;43.408;24.626;2023-10-09T06:43:10;3.53;;;1.60;;
8312;SDS011;4194;43.408;24.626;2023-10-09T06:45:42;4.70;;;1.70;;
8312;SDS011;4194;43.408;24.626;2023-10-09T06:48:14;2.73;;;1.20;;
8312;SDS011;4194;43.408;24.626;2023-10-09T06:51:01;5.30;;;1.53;;
8312;SDS011;4194;43.408;24.626;2023-10-09T06:53:47;2.00;;;1.33;;
8312;SDS011;4194;43.408;24.626;2023-10-09T06:56:33;3.13;;;1.40;;
8312;SDS011;4194;43.408;24.626;2023-10-09T06:58:59;8.50;;;1.60;;
8312;SDS011;4194;43.408;24.626;2023-10-09T07:01:30;5.07;;;2.10;;
8312;SDS011;4194;43.408;24.626;2023-10-09T07:04:08;6.17;;;1.70;;
8312;SDS011;4194;43.408;24.626;2023-10-09T07:06:52;3.20;;;1.37;;
8312;SDS011;4194;43.408;24.626;2023-10-09T07:09:22;2.37;;;1.50;;
8312;SDS011;4194;43.408;24.626;2023-10-09T07:14:15;6.47;;;1.50;;
8312;SDS011;4194;43.408;24.626;2023-10-09T07:16:57;4.50;;;1.37;;
8312;SDS011;4194;43.408;24.626;2023-10-09T07:19:41;4.37;;;1.50;;
8312;SDS011;4194;43.408;24.626;2023-10-09T07:22:08;4.17;;;1.43;;
8312;SDS011;4194;43.408;24.626;2023-10-09T07:27:24;4.93;;;1.70;;
8312;SDS011;4194;43.408;24.626;2023-10-09T07:30:13;3.17;;;1.30;;
8312;SDS011;4194;43.408;24.626;2023-10-09T07:33:07;6.67;;;1.27;;
8312;SDS011;4194;43.408;24.626;2023-10-09T07:35:45;4.93;;;1.80;;
8312;SDS011;4194;43.408;24.626;2023-10-09T07:38:14;2.73;;;1.50;;
8312;SDS011;4194;43.408;24.626;2023-10-09T07:41:01;7.17;;;1.87;;
8312;SDS011;4194;43.408;24.626;2023-10-09T07:43:27;2.77;;;1.47;;
8312;SDS011;4194;43.408;24.626;2023-10-09T07:46:18;4.47;;;2.13;;
8312;SDS011;4194;43.408;24.626;2023-10-09T07:49:04;3.23;;;1.80;;
8312;SDS011;4194;43.408;24.626;2023-10-09T07:51:40;8.27;;;2.13;;
8312;SDS011;4194;43.408;24.626;2023-10-09T07:54:09;7.03;;;2.87;;
8312;SDS011;4194;43.408;24.626;2023-10-09T07:56:40;13.43;;;2.97;;
8312;SDS011;4194;43.408;24.626;2023-10-09T07:59:07;8.80;;;2.60;;
8312;SDS011;4194;43.408;24.626;2023-10-09T08:01:49;3.67;;;2.77;;
8312;SDS011;4194;43.408;24.626;2023-10-09T08:04:22;8.17;;;2.83;;
8312;SDS011;4194;43.408;24.626;2023-10-09T08:07:03;5.67;;;2.83;;
8312;SDS011;4194;43.408;24.626;2023-10-09T08:09:32;4.90;;;2.40;;
8312;SDS011;4194;43.408;24.626;2023-10-09T08:12:15;4.80;;;2.00;;
8312;SDS011;4194;43.408;24.626;2023-10-09T08:15:01;7.00;;;3.97;;
8312;SDS011;4194;43.408;24.626;2023-10-09T08:20:30;6.60;;;2.43;;
8312;SDS011;4194;43.408;24.626;2023-10-09T08:23:15;6.77;;;1.90;;
8312;SDS011;4194;43.408;24.626;2023-10-09T08:25:58;4.10;;;1.70;;
8312;SDS011;4194;43.408;24.626;2023-10-09T08:28:42;2.63;;;1.80;;
8312;SDS011;4194;43.408;24.626;2023-10-09T08:31:12;3.43;;;1.73;;
8312;SDS011;4194;43.408;24.626;2023-10-09T08:33:57;5.90;;;1.87;;
8312;SDS011;4194;43.408;24.626;2023-10-09T08:36:24;6.10;;;1.57;;
8312;SDS011;4194;43.408;24.626;2023-10-09T08:38:53;6.23;;;1.80;;
8312;SDS011;4194;43.408;24.626;2023-10-09T08:41:23;8.17;;;1.57;;
8312;SDS011;4194;43.408;24.626;2023-10-09T08:43:55;7.87;;;2.10;;
8312;SDS011;4194;43.408;24.626;2023-10-09T08:46:23;3.43;;;1.70;;
8312;SDS011;4194;43.408;24.626;2023-10-09T08:48:54;6.53;;;1.97;;
8312;SDS011;4194;43.408;24.626;2023-10-09T08:51:30;5.33;;;1.50;;
8312;SDS011;4194;43.408;24.626;2023-10-09T08:53:57;4.63;;;1.97;;
8312;SDS011;4194;43.408;24.626;2023-10-09T08:56:23;7.50;;;1.83;;
8312;SDS011;4194;43.408;24.626;2023-10-09T08:58:50;6.33;;;2.00;;
8312;SDS011;4194;43.408;24.626;2023-10-09T09:01:26;3.63;;;1.67;;
8312;SDS011;4194;43.408;24.626;2023-10-09T09:03:56;4.97;;;1.67;;
8312;SDS011;4194;43.408;24.626;2023-10-09T09:06:22;2.07;;;1.60;;
8312;SDS011;4194;43.408;24.626;2023-10-09T09:08:49;3.60;;;2.20;;
8312;SDS011;4194;43.408;24.626;2023-10-09T09:11:20;13.33;;;2.93;;
8312;SDS011;4194;43.408;24.626;2023-10-09T09:16:28;7.90;;;2.23;;
8312;SDS011;4194;43.408;24.626;2023-10-09T09:19:00;8.90;;;2.07;;
8312;SDS011;4194;43.408;24.626;2023-10-09T09:21:37;6.57;;;2.27;;
8312;SDS011;4194;43.408;24.626;2023-10-09T09:24:05;7.50;;;2.23;;
8312;SDS011;4194;43.408;24.626;2023-10-09T09:26:42;12.13;;;2.23;;
8312;SDS011;4194;43.408;24.626;2023-10-09T09:29:14;5.93;;;2.40;;
8312;SDS011;4194;43.408;24.626;2023-10-09T09:31:56;3.83;;;1.77;;
8312;SDS011;4194;43.408;24.626;2023-10-09T09:34:44;12.40;;;5.97;;
8312;SDS011;4194;43.408;24.626;2023-10-09T09:37:23;10.67;;;6.10;;
8312;SDS011;4194;43.408;24.626;2023-10-09T09:39:58;11.83;;;6.33;;
8312;SDS011;4194;43.408;24.626;2023-10-09T09:42:39;18.07;;;12.13;;
8312;SDS011;4194;43.408;24.626;2023-10-09T09:45:11;28.00;;;16.70;;
8312;SDS011;4194;43.408;24.626;2023-10-09T09:47:37;28.20;;;21.73;;
8312;SDS011;4194;43.408;24.626;2023-10-09T09:50:04;21.83;;;16.50;;
8312;SDS011;4194;43.408;24.626;2023-10-09T09:52:49;18.63;;;11.87;;
8312;SDS011;4194;43.408;24.626;2023-10-09T09:55:21;23.80;;;14.47;;
8312;SDS011;4194;43.408;24.626;2023-10-09T09:57:56;21.27;;;16.83;;
8312;SDS011;4194;43.408;24.626;2023-10-09T10:00:23;23.13;;;16.80;;
8312;SDS011;4194;43.408;24.626;2023-10-09T10:03:06;22.40;;;16.17;;
8312;SDS011;4194;43.408;24.626;2023-10-09T10:05:42;20.63;;;11.70;;
8312;SDS011;4194;43.408;24.626;2023-10-09T10:08:11;14.67;;;10.50;;
8312;SDS011;4194;43.408;24.626;2023-10-09T10:10:48;11.17;;;7.20;;
8312;SDS011;4194;43.408;24.626;2023-10-09T10:16:11;10.10;;;5.27;;
8312;SDS011;4194;43.408;24.626;2023-10-09T10:21:33;10.77;;;4.17;;
8312;SDS011;4194;43.408;24.626;2023-10-09T10:24:06;11.70;;;2.90;;
8312;SDS011;4194;43.408;24.626;2023-10-09T10:30:12;6.57;;;2.27;;
8312;SDS011;4194;43.408;24.626;2023-10-09T10:35:19;4.87;;;1.73;;
8312;SDS011;4194;43.408;24.626;2023-10-09T10:37:57;6.40;;;1.90;;
8312;SDS011;4194;43.408;24.626;2023-10-09T10:40:32;10.67;;;2.03;;
8312;SDS011;4194;43.408;24.626;2023-10-09T10:43:20;13.47;;;2.33;;
8312;SDS011;4194;43.408;24.626;2023-10-09T10:46:07;7.63;;;1.90;;
8312;SDS011;4194;43.408;24.626;2023-10-09T10:48:40;4.30;;;1.70;;
8312;SDS011;4194;43.408;24.626;2023-10-09T10:51:12;8.13;;;1.90;;
8312;SDS011;4194;43.408;24.626;2023-10-09T10:54:01;7.90;;;1.70;;
8312;SDS011;4194;43.408;24.626;2023-10-09T10:56:46;6.83;;;3.57;;
8312;SDS011;4194;43.408;24.626;2023-10-09T10:59:16;7.00;;;1.87;;
8312;SDS011;4194;43.408;24.626;2023-10-09T11:01:52;14.47;;;3.20;;
8312;SDS011;4194;43.408;24.626;2023-10-09T11:04:23;10.27;;;2.00;;
8312;SDS011;4194;43.408;24.626;2023-10-09T11:06:56;5.40;;;2.10;;
8312;SDS011;4194;43.408;24.626;2023-10-09T11:09:46;7.83;;;1.70;;
8312;SDS011;4194;43.408;24.626;2023-10-09T11:15:07;7.07;;;2.00;;
8312;SDS011;4194;43.408;24.626;2023-10-09T11:18:00;6.63;;;1.80;;
8312;SDS011;4194;43.408;24.626;2023-10-09T11:20:35;5.37;;;2.50;;
8312;SDS011;4194;43.408;24.626;2023-10-09T11:23:03;5.57;;;1.90;;
8312;SDS011;4194;43.408;24.626;2023-10-09T11:25:39;5.77;;;1.37;;
8312;SDS011;4194;43.408;24.626;2023-10-09T11:31:11;3.87;;;2.00;;
8312;SDS011;4194;43.408;24.626;2023-10-09T11:33:47;13.33;;;1.80;;
8312;SDS011;4194;43.408;24.626;2023-10-09T11:36:16;8.53;;;1.83;;
8312;SDS011;4194;43.408;24.626;2023-10-09T11:38:57;5.13;;;1.80;;
8312;SDS011;4194;43.408;24.626;2023-10-09T11:41:43;5.90;;;1.77;;
8312;SDS011;4194;43.408;24.626;2023-10-09T11:44:09;10.83;;;2.00;;
8312;SDS011;4194;43.408;24.626;2023-10-09T11:46:57;4.33;;;1.63;;
8312;SDS011;4194;43.408;24.626;2023-10-09T11:49:46;6.27;;;1.90;;
8312;SDS011;4194;43.408;24.626;2023-10-09T11:52:31;3.27;;;1.60;;
8312;SDS011;4194;43.408;24.626;2023-10-09T11:55:04;4.37;;;1.70;;
8312;SDS011;4194;43.408;24.626;2023-10-09T11:57:41;11.80;;;2.13;;
8312;SDS011;4194;43.408;24.626;2023-10-09T12:00:07;10.70;;;2.40;;
8312;SDS011;4194;43.408;24.626;2023-10-09T12:02:50;6.20;;;2.03;;
8312;SDS011;4194;43.408;24.626;2023-10-09T12:05:15;11.40;;;2.33;;
8312;SDS011;4194;43.408;24.626;2023-10-09T12:07:46;10.53;;;2.87;;
8312;SDS011;4194;43.408;24.626;2023-10-09T12:10:19;4.77;;;2.13;;
8312;SDS011;4194;43.408;24.626;2023-10-09T12:12:50;8.27;;;2.20;;
8312;SDS011;4194;43.408;24.626;2023-10-09T12:15:16;4.93;;;2.53;;
8312;SDS011;4194;43.408;24.626;2023-10-09T12:17:45;7.43;;;2.60;;
8312;SDS011;4194;43.408;24.626;2023-10-09T12:20:15;10.13;;;2.90;;
8312;SDS011;4194;43.408;24.626;2023-10-09T12:23:01;7.30;;;3.30;;
8312;SDS011;4194;43.408;24.626;2023-10-09T12:25:34;5.93;;;4.27;;
8312;SDS011;4194;43.408;24.626;2023-10-09T12:28:00;5.60;;;4.18;;
8312;SDS011;4194;43.408;24.626;2023-10-09T12:30:30;8.85;;;4.40;;
8312;SDS011;4194;43.408;24.626;2023-10-09T12:33:03;8.47;;;4.60;;
8312;SDS011;4194;43.408;24.626;2023-10-09T12:35:29;6.80;;;4.50;;
8312;SDS011;4194;43.408;24.626;2023-10-09T12:37:59;12.77;;;5.03;;
8312;SDS011;4194;43.408;24.626;2023-10-09T12:40:25;15.13;;;5.20;;
8312;SDS011;4194;43.408;24.626;2023-10-09T12:42:56;10.53;;;4.60;;
8312;SDS011;4194;43.408;24.626;2023-10-09T12:45:24;9.02;;;4.45;;
8312;SDS011;4194;43.408;24.626;2023-10-09T12:47:58;8.27;;;4.85;;
8312;SDS011;4194;43.408;24.626;2023-10-09T12:50:27;6.45;;;4.38;;
8312;SDS011;4194;43.408;24.626;2023-10-09T12:52:54;7.53;;;4.55;;
8312;SDS011;4194;43.408;24.626;2023-10-09T12:55:20;6.38;;;4.28;;
8312;SDS011;4194;43.408;24.626;2023-10-09T12:57:46;7.05;;;4.30;;
8312;SDS011;4194;43.408;24.626;2023-10-09T13:00:13;6.40;;;4.13;;
8312;SDS011;4194;43.408;24.626;2023-10-09T13:02:50;5.40;;;4.40;;
8312;SDS011;4194;43.408;24.626;2023-10-09T13:05:16;6.32;;;3.95;;
8312;SDS011;4194;43.408;24.626;2023-10-09T13:07:54;8.77;;;4.45;;
8312;SDS011;4194;43.408;24.626;2023-10-09T13:10:30;15.43;;;3.63;;
8312;SDS011;4194;43.408;24.626;2023-10-09T13:12:56;7.43;;;3.05;;
8312;SDS011;4194;43.408;24.626;2023-10-09T13:15:22;6.80;;;2.75;;
8312;SDS011;4194;43.408;24.626;2023-10-09T13:17:48;7.07;;;3.15;;
8312;SDS011;4194;43.408;24.626;2023-10-09T13:20:13;4.55;;;2.40;;
8312;SDS011;4194;43.408;24.626;2023-10-09T13:22:39;6.72;;;2.30;;
8312;SDS011;4194;43.408;24.626;2023-10-09T13:25:07;6.50;;;2.10;;
8312;SDS011;4194;43.408;24.626;2023-10-09T13:27:39;6.93;;;2.17;;
8312;SDS011;4194;43.408;24.626;2023-10-09T13:30:05;10.20;;;1.80;;
8312;SDS011;4194;43.408;24.626;2023-10-09T13:32:33;5.53;;;2.27;;
8312;SDS011;4194;43.408;24.626;2023-10-09T13:35:03;9.20;;;2.00;;
8312;SDS011;4194;43.408;24.626;2023-10-09T13:37:30;8.73;;;2.13;;
8312;SDS011;4194;43.408;24.626;2023-10-09T13:40:04;7.67;;;1.90;;
8312;SDS011;4194;43.408;24.626;2023-10-09T13:42:36;2.07;;;1.70;;
8312;SDS011;4194;43.408;24.626;2023-10-09T13:45:02;5.13;;;2.00;;
8312;SDS011;4194;43.408;24.626;2023-10-09T13:47:41;6.27;;;1.80;;
8312;SDS011;4194;43.408;24.626;2023-10-09T13:50:10;4.63;;;2.00;;
8312;SDS011;4194;43.408;24.626;2023-10-09T13:52:36;3.47;;;1.50;;
8312;SDS011;4194;43.408;24.626;2023-10-09T13:55:05;3.35;;;1.70;;
8312;SDS011;4194;43.408;24.626;2023-10-09T13:57:43;4.83;;;1.90;;
8312;SDS011;4194;43.408;24.626;2023-10-09T14:00:13;6.22;;;1.92;;
8312;SDS011;4194;43.408;24.626;2023-10-09T14:02:57;6.18;;;2.03;;
8312;SDS011;4194;43.408;24.626;2023-10-09T14:05:27;3.38;;;1.85;;
8312;SDS011;4194;43.408;24.626;2023-10-09T14:07:53;4.05;;;1.88;;
8312;SDS011;4194;43.408;24.626;2023-10-09T14:10:25;5.80;;;1.90;;
8312;SDS011;4194;43.408;24.626;2023-10-09T14:12:55;3.17;;;1.40;;
8312;SDS011;4194;43.408;24.626;2023-10-09T14:15:22;2.23;;;1.60;;
8312;SDS011;4194;43.408;24.626;2023-10-09T14:17:48;5.87;;;1.87;;
8312;SDS011;4194;43.408;24.626;2023-10-09T14:20:20;4.50;;;1.70;;
8312;SDS011;4194;43.408;24.626;2023-10-09T14:22:57;5.10;;;2.03;;
8312;SDS011;4194;43.408;24.626;2023-10-09T14:25:31;5.87;;;2.03;;
8312;SDS011;4194;43.408;24.626;2023-10-09T14:28:09;5.60;;;1.50;;
8312;SDS011;4194;43.408;24.626;2023-10-09T14:30:38;3.70;;;1.27;;
8312;SDS011;4194;43.408;24.626;2023-10-09T14:33:13;5.13;;;1.40;;
8312;SDS011;4194;43.408;24.626;2023-10-09T14:35:43;4.53;;;1.60;;
8312;SDS011;4194;43.408;24.626;2023-10-09T14:38:10;6.40;;;1.90;;
8312;SDS011;4194;43.408;24.626;2023-10-09T14:40:41;2.50;;;1.17;;
8312;SDS011;4194;43.408;24.626;2023-10-09T14:43:08;8.00;;;2.07;;
8312;SDS011;4194;43.408;24.626;2023-10-09T14:45:43;3.77;;;1.00;;
8312;SDS011;4194;43.408;24.626;2023-10-09T14:48:13;2.93;;;1.43;;
8312;SDS011;4194;43.408;24.626;2023-10-09T14:50:46;9.47;;;2.03;;
8312;SDS011;4194;43.408;24.626;2023-10-09T14:53:18;7.73;;;1.90;;
8312;SDS011;4194;43.408;24.626;2023-10-09T14:55:53;5.47;;;1.57;;
8312;SDS011;4194;43.408;24.626;2023-10-09T14:58:19;7.43;;;1.70;;
8312;SDS011;4194;43.408;24.626;2023-10-09T15:00:45;7.83;;;1.90;;
8312;SDS011;4194;43.408;24.626;2023-10-09T15:03:14;6.20;;;1.67;;
8312;SDS011;4194;43.408;24.626;2023-10-09T15:05:43;3.60;;;1.40;;
8312;SDS011;4194;43.408;24.626;2023-10-09T15:08:09;9.30;;;2.10;;
8312;SDS011;4194;43.408;24.626;2023-10-09T15:10:48;7.20;;;1.63;;
8312;SDS011;4194;43.408;24.626;2023-10-09T15:13:21;6.63;;;1.97;;
8312;SDS011;4194;43.408;24.626;2023-10-09T15:15:53;3.60;;;1.70;;
8312;SDS011;4194;43.408;24.626;2023-10-09T15:18:20;9.67;;;2.13;;
8312;SDS011;4194;43.408;24.626;2023-10-09T15:20:50;3.37;;;1.80;;
8312;SDS011;4194;43.408;24.626;2023-10-09T15:23:17;5.47;;;1.70;;
8312;SDS011;4194;43.408;24.626;2023-10-09T15:25:46;7.43;;;2.30;;
8312;SDS011;4194;43.408;24.626;2023-10-09T15:28:15;6.67;;;2.33;;
8312;SDS011;4194;43.408;24.626;2023-10-09T15:30:42;7.63;;;2.37;;
8312;SDS011;4194;43.408;24.626;2023-10-09T15:33:08;10.80;;;1.87;;
8312;SDS011;4194;43.408;24.626;2023-10-09T15:35:36;4.40;;;2.03;;
8312;SDS011;4194;43.408;24.626;2023-10-09T15:38:02;7.23;;;3.03;;
8312;SDS011;4194;43.408;24.626;2023-10-09T15:40:29;8.47;;;3.60;;
8312;SDS011;4194;43.408;24.626;2023-10-09T15:42:58;14.50;;;3.47;;
8312;SDS011;4194;43.408;24.626;2023-10-09T15:45:25;10.80;;;3.00;;
8312;SDS011;4194;43.408;24.626;2023-10-09T15:47:53;28.67;;;9.93;;
8312;SDS011;4194;43.408;24.626;2023-10-09T15:50:20;85.90;;;29.37;;
8312;SDS011;4194;43.408;24.626;2023-10-09T15:52:49;107.67;;;40.80;;
8312;SDS011;4194;43.408;24.626;2023-10-09T15:55:19;15.03;;;4.50;;
8312;SDS011;4194;43.408;24.626;2023-10-09T15:57:46;7.50;;;3.33;;
8312;SDS011;4194;43.408;24.626;2023-10-09T16:00:13;22.57;;;3.23;;
8312;SDS011;4194;43.408;24.626;2023-10-09T16:02:42;17.53;;;3.33;;
8312;SDS011;4194;43.408;24.626;2023-10-09T16:05:11;16.77;;;3.53;;
8312;SDS011;4194;43.408;24.626;2023-10-09T16:07:40;11.63;;;3.37;;
8312;SDS011;4194;43.408;24.626;2023-10-09T16:10:06;19.73;;;3.33;;
8312;SDS011;4194;43.408;24.626;2023-10-09T16:12:37;24.20;;;10.37;;
8312;SDS011;4194;43.408;24.626;2023-10-09T16:18:00;11.50;;;5.40;;